sensor_id;sensor_type;location;lat;lon;timestamp;pressure;altitude;pressure_sealevel;temperature;humidity
11678;BME280;5895;41.950;24.372;2023-05-19T00:00:07;86893.50;;;7.71;100.00
11678;BME280;5895;41.950;24.372;2023-05-19T00:02:35;86896.09;;;7.71;100.00
11678;BME280;5895;41.950;24.372;2023-05-19T00:05:04;86895.91;;;7.66;100.00
11678;BME280;5895;41.950;24.372;2023-05-19T00:07:32;86886.16;;;7.68;100.00
11678;BME280;5895;41.950;24.372;2023-05-19T00:10:03;86895.50;;;7.69;100.00
11678;BME280;5895;41.950;24.372;2023-05-19T00:12:30;86892.31;;;7.67;100.00
11678;BME280;5895;41.950;24.372;2023-05-19T00:14:58;86878.41;;;7.68;100.00
11678;BME280;5895;41.950;24.372;2023-05-19T00:17:27;86883.56;;;7.68;100.00
11678;BME280;5895;41.950;24.372;2023-05-19T00:19:54;86885.38;;;7.67;100.00
11678;BME280;5895;41.950;24.372;2023-05-19T00:22:21;86875.25;;;7.66;100.00
11678;BME280;5895;41.950;24.372;2023-05-19T00:24:48;86888.16;;;7.66;100.00
11678;BME280;5895;41.950;24.372;2023-05-19T00:27:15;86881.44;;;7.65;100.00
11678;BME280;5895;41.950;24.372;2023-05-19T00:29:42;86887.38;;;7.65;100.00
11678;BME280;5895;41.950;24.372;2023-05-19T00:32:09;86883.41;;;7.63;100.00
11678;BME280;5895;41.950;24.372;2023-05-19T00:34:38;86886.81;;;7.63;100.00
11678;BME280;5895;41.950;24.372;2023-05-19T00:37:05;86884.41;;;7.62;100.00
11678;BME280;5895;41.950;24.372;2023-05-19T00:39:32;86894.72;;;7.62;100.00
11678;BME280;5895;41.950;24.372;2023-05-19T00:41:59;86889.56;;;7.62;100.00
11678;BME280;5895;41.950;24.372;2023-05-19T00:44:27;86879.47;;;7.60;100.00
11678;BME280;5895;41.950;24.372;2023-05-19T00:46:54;86885.41;;;7.61;100.00
11678;BME280;5895;41.950;24.372;2023-05-19T00:49:21;86888.00;;;7.61;100.00
11678;BME280;5895;41.950;24.372;2023-05-19T00:51:50;86887.00;;;7.62;100.00
11678;BME280;5895;41.950;24.372;2023-05-19T00:54:17;86887.00;;;7.62;100.00
11678;BME280;5895;41.950;24.372;2023-05-19T00:56:45;86879.25;;;7.62;100.00
11678;BME280;5895;41.950;24.372;2023-05-19T00:59:14;86882.84;;;7.61;100.00
11678;BME280;5895;41.950;24.372;2023-05-19T01:01:41;86882.84;;;7.61;100.00
11678;BME280;5895;41.950;24.372;2023-05-19T01:04:10;86882.03;;;7.60;100.00
11678;BME280;5895;41.950;24.372;2023-05-19T01:06:41;86890.56;;;7.61;100.00
11678;BME280;5895;41.950;24.372;2023-05-19T01:09:10;86893.16;;;7.61;100.00
11678;BME280;5895;41.950;24.372;2023-05-19T01:11:37;86893.16;;;7.61;100.00
11678;BME280;5895;41.950;24.372;2023-05-19T01:14:04;86881.81;;;7.62;100.00
11678;BME280;5895;41.950;24.372;2023-05-19T01:16:37;86877.66;;;7.61;100.00
11678;BME280;5895;41.950;24.372;2023-05-19T01:19:13;86882.84;;;7.61;100.00
11678;BME280;5895;41.950;24.372;2023-05-19T01:22:13;86873.50;;;7.60;100.00
11678;BME280;5895;41.950;24.372;2023-05-19T01:28:37;86881.66;;;7.57;100.00
11678;BME280;5895;41.950;24.372;2023-05-19T01:31:16;86883.25;;;7.58;100.00
11678;BME280;5895;41.950;24.372;2023-05-19T01:33:48;86884.66;;;7.54;100.00
11678;BME280;5895;41.950;24.372;2023-05-19T01:36:19;86878.28;;;7.56;100.00
11678;BME280;5895;41.950;24.372;2023-05-19T01:38:50;86868.19;;;7.55;100.00
11678;BME280;5895;41.950;24.372;2023-05-19T01:41:18;86863.41;;;7.58;100.00
11678;BME280;5895;41.950;24.372;2023-05-19T01:43:47;86867.78;;;7.58;100.00
11678;BME280;5895;41.950;24.372;2023-05-19T01:46:16;86872.13;;;7.57;100.00
11678;BME280;5895;41.950;24.372;2023-05-19T01:48:44;86872.94;;;7.58;100.00
11678;BME280;5895;41.950;24.372;2023-05-19T01:51:12;86870.53;;;7.56;100.00
11678;BME280;5895;41.950;24.372;2023-05-19T01:53:40;86872.56;;;7.54;100.00
11678;BME280;5895;41.950;24.372;2023-05-19T01:56:07;86868.38;;;7.53;100.00
11678;BME280;5895;41.950;24.372;2023-05-19T01:58:40;86874.34;;;7.54;100.00
11678;BME280;5895;41.950;24.372;2023-05-19T02:01:19;86876.94;;;7.54;100.00
11678;BME280;5895;41.950;24.372;2023-05-19T02:04:00;86871.97;;;7.52;100.00
11678;BME280;5895;41.950;24.372;2023-05-19T02:06:35;86872.75;;;7.53;100.00
11678;BME280;5895;41.950;24.372;2023-05-19T02:09:10;86876.94;;;7.54;100.00
11678;BME280;5895;41.950;24.372;2023-05-19T02:11:42;86880.50;;;7.53;100.00
11678;BME280;5895;41.950;24.372;2023-05-19T02:14:17;86880.50;;;7.53;100.00
11678;BME280;5895;41.950;24.372;2023-05-19T02:16:47;86880.50;;;7.53;100.00
11678;BME280;5895;41.950;24.372;2023-05-19T02:19:23;86885.66;;;7.53;100.00
11678;BME280;5895;41.950;24.372;2023-05-19T02:21:50;86898.59;;;7.53;100.00
11678;BME280;5895;41.950;24.372;2023-05-19T02:24:18;86892.41;;;7.54;100.00
11678;BME280;5895;41.950;24.372;2023-05-19T02:26:47;86905.91;;;7.56;100.00
11678;BME280;5895;41.950;24.372;2023-05-19T02:29:14;86895.56;;;7.56;100.00
11678;BME280;5895;41.950;24.372;2023-05-19T02:31:42;86898.59;;;7.53;100.00
11678;BME280;5895;41.950;24.372;2023-05-19T02:34:10;86895.22;;;7.52;100.00
11678;BME280;5895;41.950;24.372;2023-05-19T02:36:39;86898.75;;;7.58;100.00
11678;BME280;5895;41.950;24.372;2023-05-19T02:39:07;86902.31;;;7.57;100.00
11678;BME280;5895;41.950;24.372;2023-05-19T02:41:35;86900.72;;;7.56;100.00
11678;BME280;5895;41.950;24.372;2023-05-19T02:44:03;86896.56;;;7.55;100.00
11678;BME280;5895;41.950;24.372;2023-05-19T02:46:30;86898.16;;;7.56;100.00
11678;BME280;5895;41.950;24.372;2023-05-19T02:48:58;86904.53;;;7.53;100.00
11678;BME280;5895;41.950;24.372;2023-05-19T02:51:26;86909.47;;;7.55;100.00
11678;BME280;5895;41.950;24.372;2023-05-19T02:53:53;86904.88;;;7.57;100.00
11678;BME280;5895;41.950;24.372;2023-05-19T02:56:20;86899.53;;;7.58;100.00
11678;BME280;5895;41.950;24.372;2023-05-19T02:58:47;86910.66;;;7.59;100.00
11678;BME280;5895;41.950;24.372;2023-05-19T03:01:15;86915.81;;;7.59;100.00
11678;BME280;5895;41.950;24.372;2023-05-19T03:03:42;86907.06;;;7.60;100.00
11678;BME280;5895;41.950;24.372;2023-05-19T03:06:09;86909.44;;;7.61;100.00
11678;BME280;5895;41.950;24.372;2023-05-19T03:08:37;86915.00;;;7.65;100.00
11678;BME280;5895;41.950;24.372;2023-05-19T03:11:04;86918.38;;;7.65;100.00
11678;BME280;5895;41.950;24.372;2023-05-19T03:13:31;86922.31;;;7.68;100.00
11678;BME280;5895;41.950;24.372;2023-05-19T03:15:59;86921.34;;;7.69;100.00
11678;BME280;5895;41.950;24.372;2023-05-19T03:18:26;86925.28;;;7.72;100.00
11678;BME280;5895;41.950;24.372;2023-05-19T03:20:53;86933.25;;;7.70;100.00
11678;BME280;5895;41.950;24.372;2023-05-19T03:23:21;86919.91;;;7.73;100.00
11678;BME280;5895;41.950;24.372;2023-05-19T03:25:49;86921.06;;;7.77;100.00
11678;BME280;5895;41.950;24.372;2023-05-19T03:28:18;86931.19;;;7.79;100.00
11678;BME280;5895;41.950;24.372;2023-05-19T03:30:46;86921.88;;;7.78;100.00
11678;BME280;5895;41.950;24.372;2023-05-19T03:33:14;86927.97;;;7.83;100.00
11678;BME280;5895;41.950;24.372;2023-05-19T03:35:41;86930.34;;;7.85;100.00
11678;BME280;5895;41.950;24.372;2023-05-19T03:38:09;86925.97;;;7.85;100.00
11678;BME280;5895;41.950;24.372;2023-05-19T03:40:36;86930.75;;;7.88;100.00
11678;BME280;5895;41.950;24.372;2023-05-19T03:43:04;86925.56;;;7.88;100.00
11678;BME280;5895;41.950;24.372;2023-05-19T03:45:32;86926.16;;;7.90;100.00
11678;BME280;5895;41.950;24.372;2023-05-19T03:47:59;86929.72;;;7.89;100.00
11678;BME280;5895;41.950;24.372;2023-05-19T03:50:26;86923.56;;;7.90;100.00
11678;BME280;5895;41.950;24.372;2023-05-19T03:52:53;86935.50;;;7.91;100.00
11678;BME280;5895;41.950;24.372;2023-05-19T03:55:20;86929.34;;;7.92;100.00
11678;BME280;5895;41.950;24.372;2023-05-19T03:57:47;86943.81;;;7.93;100.00
11678;BME280;5895;41.950;24.372;2023-05-19T04:00:17;86941.25;;;7.93;100.00
11678;BME280;5895;41.950;24.372;2023-05-19T04:02:44;86936.66;;;7.95;100.00
11678;BME280;5895;41.950;24.372;2023-05-19T04:05:11;86939.84;;;7.98;100.00
11678;BME280;5895;41.950;24.372;2023-05-19T04:07:38;86938.22;;;7.96;100.00
11678;BME280;5895;41.950;24.372;2023-05-19T04:10:07;86945.00;;;7.98;100.00
11678;BME280;5895;41.950;24.372;2023-05-19T04:12:34;86946.16;;;8.02;100.00
11678;BME280;5895;41.950;24.372;2023-05-19T04:15:01;86947.31;;;8.06;100.00
11678;BME280;5895;41.950;24.372;2023-05-19T04:17:30;86944.34;;;8.09;100.00
11678;BME280;5895;41.950;24.372;2023-05-19T04:19:57;86940.75;;;8.10;100.00
11678;BME280;5895;41.950;24.372;2023-05-19T04:22:24;86940.13;;;8.08;100.00
11678;BME280;5895;41.950;24.372;2023-05-19T04:24:51;86939.72;;;8.11;100.00
11678;BME280;5895;41.950;24.372;2023-05-19T04:27:19;86938.94;;;8.10;100.00
11678;BME280;5895;41.950;24.372;2023-05-19T04:29:46;86942.53;;;8.09;100.00
11678;BME280;5895;41.950;24.372;2023-05-19T04:32:14;86943.91;;;8.12;100.00
11678;BME280;5895;41.950;24.372;2023-05-19T04:34:43;86937.72;;;8.13;100.00
11678;BME280;5895;41.950;24.372;2023-05-19T04:37:11;86949.44;;;8.15;100.00
11678;BME280;5895;41.950;24.372;2023-05-19T04:39:39;86946.06;;;8.15;100.00
11678;BME280;5895;41.950;24.372;2023-05-19T04:42:08;86953.00;;;8.21;100.00
11678;BME280;5895;41.950;24.372;2023-05-19T04:44:36;86947.38;;;8.24;100.00
11678;BME280;5895;41.950;24.372;2023-05-19T04:47:05;86949.56;;;8.27;100.00
11678;BME280;5895;41.950;24.372;2023-05-19T04:49:33;86953.88;;;8.33;100.00
11678;BME280;5895;41.950;24.372;2023-05-19T04:52:06;86955.44;;;8.41;100.00
11678;BME280;5895;41.950;24.372;2023-05-19T04:54:35;86949.66;;;8.45;100.00
11678;BME280;5895;41.950;24.372;2023-05-19T04:57:02;86953.81;;;8.46;100.00
11678;BME280;5895;41.950;24.372;2023-05-19T04:59:30;86951.44;;;8.45;100.00
11678;BME280;5895;41.950;24.372;2023-05-19T05:01:57;86958.81;;;8.41;100.00
11678;BME280;5895;41.950;24.372;2023-05-19T05:04:24;86958.63;;;8.43;100.00
11678;BME280;5895;41.950;24.372;2023-05-19T05:06:51;86960.44;;;8.42;100.00
11678;BME280;5895;41.950;24.372;2023-05-19T05:09:20;86960.00;;;8.45;100.00
11678;BME280;5895;41.950;24.372;2023-05-19T05:11:47;86959.38;;;8.50;100.00
11678;BME280;5895;41.950;24.372;2023-05-19T05:14:16;86961.31;;;8.55;100.00
11678;BME280;5895;41.950;24.372;2023-05-19T05:16:44;86966.84;;;8.58;100.00
11678;BME280;5895;41.950;24.372;2023-05-19T05:19:12;86974.97;;;8.62;100.00
11678;BME280;5895;41.950;24.372;2023-05-19T05:21:39;86977.94;;;8.65;100.00
11678;BME280;5895;41.950;24.372;2023-05-19T05:24:09;86982.31;;;8.65;100.00
11678;BME280;5895;41.950;24.372;2023-05-19T05:26:38;86972.84;;;8.59;100.00
11678;BME280;5895;41.950;24.372;2023-05-19T05:29:08;86985.06;;;8.70;100.00
11678;BME280;5895;41.950;24.372;2023-05-19T05:31:35;86987.78;;;8.75;100.00
11678;BME280;5895;41.950;24.372;2023-05-19T05:34:02;86992.16;;;8.81;100.00
11678;BME280;5895;41.950;24.372;2023-05-19T05:36:29;86992.09;;;8.88;100.00
11678;BME280;5895;41.950;24.372;2023-05-19T05:38:59;86976.72;;;8.93;100.00
11678;BME280;5895;41.950;24.372;2023-05-19T05:41:27;86989.94;;;9.03;100.00
11678;BME280;5895;41.950;24.372;2023-05-19T05:44:01;86995.50;;;9.07;100.00
11678;BME280;5895;41.950;24.372;2023-05-19T05:46:28;87008.38;;;9.13;100.00
11678;BME280;5895;41.950;24.372;2023-05-19T05:48:56;87009.13;;;9.20;100.00
11678;BME280;5895;41.950;24.372;2023-05-19T05:51:24;87006.47;;;9.27;100.00
11678;BME280;5895;41.950;24.372;2023-05-19T05:53:53;87000.84;;;9.30;100.00
11678;BME280;5895;41.950;24.372;2023-05-19T05:56:21;87016.59;;;9.47;100.00
11678;BME280;5895;41.950;24.372;2023-05-19T05:58:48;87023.56;;;9.65;100.00
11678;BME280;5895;41.950;24.372;2023-05-19T06:01:18;87013.22;;;9.83;100.00
11678;BME280;5895;41.950;24.372;2023-05-19T06:03:45;87014.84;;;9.96;100.00
11678;BME280;5895;41.950;24.372;2023-05-19T06:06:12;87019.53;;;10.05;100.00
11678;BME280;5895;41.950;24.372;2023-05-19T06:08:39;87017.78;;;10.18;100.00
11678;BME280;5895;41.950;24.372;2023-05-19T06:11:07;87025.06;;;10.27;100.00
11678;BME280;5895;41.950;24.372;2023-05-19T06:13:34;87020.50;;;10.41;100.00
11678;BME280;5895;41.950;24.372;2023-05-19T06:16:02;87026.97;;;10.50;100.00
11678;BME280;5895;41.950;24.372;2023-05-19T06:18:30;87021.56;;;10.64;100.00
11678;BME280;5895;41.950;24.372;2023-05-19T06:20:57;87021.03;;;10.73;100.00
11678;BME280;5895;41.950;24.372;2023-05-19T06:23:24;87030.44;;;10.86;100.00
11678;BME280;5895;41.950;24.372;2023-05-19T06:25:53;87034.41;;;11.00;100.00
11678;BME280;5895;41.950;24.372;2023-05-19T06:28:20;87028.44;;;11.11;100.00
11678;BME280;5895;41.950;24.372;2023-05-19T06:30:47;87033.84;;;11.22;100.00
11678;BME280;5895;41.950;24.372;2023-05-19T06:33:14;87035.91;;;11.31;100.00
11678;BME280;5895;41.950;24.372;2023-05-19T06:35:43;87039.28;;;11.44;100.00
11678;BME280;5895;41.950;24.372;2023-05-19T06:38:10;87036.13;;;11.53;100.00
11678;BME280;5895;41.950;24.372;2023-05-19T06:40:37;87022.00;;;11.61;100.00
11678;BME280;5895;41.950;24.372;2023-05-19T06:43:04;87033.41;;;11.72;100.00
11678;BME280;5895;41.950;24.372;2023-05-19T06:45:31;87047.66;;;11.81;100.00
11678;BME280;5895;41.950;24.372;2023-05-19T06:47:59;87046.31;;;11.90;100.00
11678;BME280;5895;41.950;24.372;2023-05-19T06:50:26;87041.78;;;11.97;100.00
11678;BME280;5895;41.950;24.372;2023-05-19T06:52:55;87036.09;;;12.00;100.00
11678;BME280;5895;41.950;24.372;2023-05-19T06:55:23;87042.44;;;12.04;100.00
11678;BME280;5895;41.950;24.372;2023-05-19T06:57:50;87053.41;;;12.18;100.00
11678;BME280;5895;41.950;24.372;2023-05-19T07:00:17;87052.66;;;12.34;100.00
11678;BME280;5895;41.950;24.372;2023-05-19T07:02:44;87055.25;;;12.46;100.00
11678;BME280;5895;41.950;24.372;2023-05-19T07:05:11;87057.03;;;12.57;100.00
11678;BME280;5895;41.950;24.372;2023-05-19T07:07:39;87050.09;;;12.63;100.00
11678;BME280;5895;41.950;24.372;2023-05-19T07:10:08;87058.59;;;12.58;100.00
11678;BME280;5895;41.950;24.372;2023-05-19T07:12:35;87060.81;;;12.66;100.00
11678;BME280;5895;41.950;24.372;2023-05-19T07:15:03;87069.47;;;12.84;100.00
11678;BME280;5895;41.950;24.372;2023-05-19T07:17:30;87066.72;;;12.90;100.00
11678;BME280;5895;41.950;24.372;2023-05-19T07:19:57;87056.88;;;12.92;100.00
11678;BME280;5895;41.950;24.372;2023-05-19T07:22:26;87061.19;;;12.87;100.00
11678;BME280;5895;41.950;24.372;2023-05-19T07:24:53;87074.25;;;12.75;100.00
11678;BME280;5895;41.950;24.372;2023-05-19T07:27:23;87062.31;;;12.91;100.00
11678;BME280;5895;41.950;24.372;2023-05-19T07:29:50;87063.41;;;12.95;100.00
11678;BME280;5895;41.950;24.372;2023-05-19T07:32:17;87061.16;;;13.15;100.00
11678;BME280;5895;41.950;24.372;2023-05-19T07:34:44;87073.75;;;13.35;100.00
11678;BME280;5895;41.950;24.372;2023-05-19T07:37:11;87072.81;;;13.25;100.00
11678;BME280;5895;41.950;24.372;2023-05-19T07:39:38;87084.19;;;13.35;100.00
11678;BME280;5895;41.950;24.372;2023-05-19T07:42:05;87071.88;;;13.31;100.00
11678;BME280;5895;41.950;24.372;2023-05-19T07:44:33;87068.69;;;13.29;100.00
11678;BME280;5895;41.950;24.372;2023-05-19T07:47:00;87071.78;;;13.26;100.00
11678;BME280;5895;41.950;24.372;2023-05-19T07:49:28;87077.22;;;13.24;100.00
11678;BME280;5895;41.950;24.372;2023-05-19T07:51:55;87081.34;;;13.37;100.00
11678;BME280;5895;41.950;24.372;2023-05-19T07:54:22;87076.63;;;13.50;100.00
11678;BME280;5895;41.950;24.372;2023-05-19T07:56:50;87080.72;;;13.63;100.00
11678;BME280;5895;41.950;24.372;2023-05-19T07:59:17;87084.91;;;13.81;100.00
11678;BME280;5895;41.950;24.372;2023-05-19T08:01:45;87064.34;;;13.85;100.00
11678;BME280;5895;41.950;24.372;2023-05-19T08:04:12;87092.25;;;13.67;100.00
11678;BME280;5895;41.950;24.372;2023-05-19T08:06:40;87087.44;;;13.59;100.00
11678;BME280;5895;41.950;24.372;2023-05-19T08:09:09;87089.19;;;13.54;100.00
11678;BME280;5895;41.950;24.372;2023-05-19T08:11:36;87092.00;;;13.52;100.00
11678;BME280;5895;41.950;24.372;2023-05-19T08:14:03;87088.31;;;13.65;100.00
11678;BME280;5895;41.950;24.372;2023-05-19T08:16:30;87089.28;;;13.75;100.00
11678;BME280;5895;41.950;24.372;2023-05-19T08:18:59;87096.34;;;13.80;100.00
11678;BME280;5895;41.950;24.372;2023-05-19T08:21:28;87089.72;;;13.89;99.32
11678;BME280;5895;41.950;24.372;2023-05-19T08:23:55;87094.94;;;13.89;98.72
11678;BME280;5895;41.950;24.372;2023-05-19T08:26:22;87097.09;;;13.75;100.00
11678;BME280;5895;41.950;24.372;2023-05-19T08:28:50;87100.47;;;13.93;100.00
11678;BME280;5895;41.950;24.372;2023-05-19T08:31:17;87094.31;;;13.82;100.00
11678;BME280;5895;41.950;24.372;2023-05-19T08:33:45;87094.94;;;13.72;100.00
11678;BME280;5895;41.950;24.372;2023-05-19T08:36:13;87109.00;;;13.71;99.17
11678;BME280;5895;41.950;24.372;2023-05-19T08:38:40;87103.00;;;14.05;99.31
11678;BME280;5895;41.950;24.372;2023-05-19T08:41:07;87100.69;;;14.08;97.27
11678;BME280;5895;41.950;24.372;2023-05-19T08:43:35;87112.66;;;14.04;98.33
11678;BME280;5895;41.950;24.372;2023-05-19T08:46:03;87094.31;;;13.99;97.61
11678;BME280;5895;41.950;24.372;2023-05-19T08:48:34;87093.41;;;14.10;94.40
11678;BME280;5895;41.950;24.372;2023-05-19T08:51:12;87099.91;;;14.08;94.57
11678;BME280;5895;41.950;24.372;2023-05-19T08:53:46;87106.75;;;14.14;94.16
11678;BME280;5895;41.950;24.372;2023-05-19T08:56:17;87097.91;;;14.32;93.34
11678;BME280;5895;41.950;24.372;2023-05-19T08:58:48;87107.69;;;14.24;96.54
11678;BME280;5895;41.950;24.372;2023-05-19T09:01:15;87108.56;;;14.30;97.29
11678;BME280;5895;41.950;24.372;2023-05-19T09:03:44;87111.94;;;14.47;96.02
11678;BME280;5895;41.950;24.372;2023-05-19T09:06:11;87111.91;;;14.64;94.90
11678;BME280;5895;41.950;24.372;2023-05-19T09:08:38;87109.22;;;14.81;95.92
11678;BME280;5895;41.950;24.372;2023-05-19T09:11:07;87104.63;;;14.88;95.06
11678;BME280;5895;41.950;24.372;2023-05-19T09:13:35;87112.94;;;14.85;95.59
11678;BME280;5895;41.950;24.372;2023-05-19T09:16:02;87107.31;;;14.71;96.13
11678;BME280;5895;41.950;24.372;2023-05-19T09:18:29;87111.38;;;14.45;95.49
11678;BME280;5895;41.950;24.372;2023-05-19T09:20:57;87118.78;;;14.32;97.08
11678;BME280;5895;41.950;24.372;2023-05-19T09:23:27;87111.84;;;14.20;97.14
11678;BME280;5895;41.950;24.372;2023-05-19T09:25:55;87121.19;;;13.99;96.94
11678;BME280;5895;41.950;24.372;2023-05-19T09:28:25;87116.25;;;14.37;95.87
11678;BME280;5895;41.950;24.372;2023-05-19T09:31:02;87124.91;;;14.59;95.19
11678;BME280;5895;41.950;24.372;2023-05-19T09:33:32;87118.81;;;14.75;95.31
11678;BME280;5895;41.950;24.372;2023-05-19T09:36:00;87102.31;;;14.70;94.55
11678;BME280;5895;41.950;24.372;2023-05-19T09:38:28;87108.63;;;14.52;95.57
11678;BME280;5895;41.950;24.372;2023-05-19T09:40:56;87107.84;;;14.35;97.14
11678;BME280;5895;41.950;24.372;2023-05-19T09:43:26;87124.34;;;14.57;95.89
11678;BME280;5895;41.950;24.372;2023-05-19T09:45:54;87112.88;;;14.58;94.72
11678;BME280;5895;41.950;24.372;2023-05-19T09:48:25;87121.13;;;14.33;94.48
11678;BME280;5895;41.950;24.372;2023-05-19T09:50:53;87125.28;;;14.12;95.67
11678;BME280;5895;41.950;24.372;2023-05-19T09:53:21;87130.84;;;13.99;96.93
11678;BME280;5895;41.950;24.372;2023-05-19T09:55:50;87135.44;;;13.92;97.85
11678;BME280;5895;41.950;24.372;2023-05-19T09:58:17;87125.63;;;13.99;97.31
11678;BME280;5895;41.950;24.372;2023-05-19T10:00:46;87127.50;;;14.20;94.12
11678;BME280;5895;41.950;24.372;2023-05-19T10:03:15;87151.84;;;14.09;95.13
11678;BME280;5895;41.950;24.372;2023-05-19T10:05:43;87130.00;;;14.32;94.72
11678;BME280;5895;41.950;24.372;2023-05-19T10:08:11;87112.25;;;14.51;92.87
11678;BME280;5895;41.950;24.372;2023-05-19T10:10:40;87129.91;;;14.82;91.56
11678;BME280;5895;41.950;24.372;2023-05-19T10:13:07;87121.63;;;15.13;91.73
11678;BME280;5895;41.950;24.372;2023-05-19T10:15:35;87123.75;;;15.16;91.11
11678;BME280;5895;41.950;24.372;2023-05-19T10:18:06;87122.03;;;15.26;91.35
11678;BME280;5895;41.950;24.372;2023-05-19T10:20:35;87119.91;;;15.50;90.39
11678;BME280;5895;41.950;24.372;2023-05-19T10:23:02;87115.13;;;15.69;88.95
11678;BME280;5895;41.950;24.372;2023-05-19T10:25:30;87121.91;;;15.65;88.88
11678;BME280;5895;41.950;24.372;2023-05-19T10:28:00;87123.38;;;15.56;91.23
11678;BME280;5895;41.950;24.372;2023-05-19T10:30:32;87108.78;;;15.33;89.25
11678;BME280;5895;41.950;24.372;2023-05-19T10:33:01;87112.91;;;15.56;90.07
11678;BME280;5895;41.950;24.372;2023-05-19T10:35:41;87108.78;;;15.60;87.42
11678;BME280;5895;41.950;24.372;2023-05-19T10:38:23;87115.81;;;15.86;88.03
11678;BME280;5895;41.950;24.372;2023-05-19T10:41:00;87112.78;;;16.00;86.61
11678;BME280;5895;41.950;24.372;2023-05-19T10:43:38;87099.34;;;16.23;83.50
11678;BME280;5895;41.950;24.372;2023-05-19T10:46:10;87105.84;;;16.58;89.61
11678;BME280;5895;41.950;24.372;2023-05-19T10:48:43;87116.22;;;16.85;83.68
11678;BME280;5895;41.950;24.372;2023-05-19T10:51:13;87092.13;;;16.88;84.20
11678;BME280;5895;41.950;24.372;2023-05-19T10:53:41;87096.75;;;16.71;86.98
11678;BME280;5895;41.950;24.372;2023-05-19T10:56:27;87115.19;;;16.49;70.91
11678;BME280;5895;41.950;24.372;2023-05-19T10:58:59;87099.56;;;16.17;87.44
11678;BME280;5895;41.950;24.372;2023-05-19T11:01:31;87112.28;;;16.03;86.57
11678;BME280;5895;41.950;24.372;2023-05-19T11:04:04;87117.22;;;15.99;85.88
11678;BME280;5895;41.950;24.372;2023-05-19T11:06:33;87110.56;;;15.86;87.97
11678;BME280;5895;41.950;24.372;2023-05-19T11:09:10;87104.25;;;15.77;85.18
11678;BME280;5895;41.950;24.372;2023-05-19T11:11:45;87104.94;;;16.05;79.67
11678;BME280;5895;41.950;24.372;2023-05-19T11:14:14;87095.22;;;16.37;84.78
11678;BME280;5895;41.950;24.372;2023-05-19T11:16:45;87098.91;;;16.36;85.73
11678;BME280;5895;41.950;24.372;2023-05-19T11:19:17;87106.81;;;16.47;85.84
11678;BME280;5895;41.950;24.372;2023-05-19T11:21:51;87098.50;;;16.60;84.87
11678;BME280;5895;41.950;24.372;2023-05-19T11:24:36;87092.34;;;16.81;74.58
11678;BME280;5895;41.950;24.372;2023-05-19T11:27:18;87086.72;;;17.15;74.44
11678;BME280;5895;41.950;24.372;2023-05-19T11:29:46;87091.97;;;17.20;84.83
11678;BME280;5895;41.950;24.372;2023-05-19T11:32:14;87080.50;;;17.41;84.11
11678;BME280;5895;41.950;24.372;2023-05-19T11:34:43;87090.13;;;17.21;83.85
11678;BME280;5895;41.950;24.372;2023-05-19T11:37:11;87088.31;;;17.26;83.81
11678;BME280;5895;41.950;24.372;2023-05-19T11:39:39;87083.63;;;17.43;84.15
11678;BME280;5895;41.950;24.372;2023-05-19T11:42:08;87084.19;;;17.56;84.02
11678;BME280;5895;41.950;24.372;2023-05-19T11:44:35;87084.97;;;17.41;84.78
11678;BME280;5895;41.950;24.372;2023-05-19T11:47:05;87085.41;;;17.23;84.89
11678;BME280;5895;41.950;24.372;2023-05-19T11:49:33;87085.91;;;17.09;84.62
11678;BME280;5895;41.950;24.372;2023-05-19T11:52:00;87087.19;;;17.02;86.43
11678;BME280;5895;41.950;24.372;2023-05-19T11:54:32;87097.13;;;16.89;84.13
11678;BME280;5895;41.950;24.372;2023-05-19T11:57:02;87109.09;;;16.75;87.50
11678;BME280;5895;41.950;24.372;2023-05-19T11:59:30;87111.59;;;16.60;87.85
11678;BME280;5895;41.950;24.372;2023-05-19T12:02:00;87121.16;;;16.34;87.20
11678;BME280;5895;41.950;24.372;2023-05-19T12:04:29;87118.03;;;16.05;87.72
11678;BME280;5895;41.950;24.372;2023-05-19T12:06:56;87128.16;;;15.64;89.72
11678;BME280;5895;41.950;24.372;2023-05-19T12:09:23;87120.28;;;15.10;91.78
11678;BME280;5895;41.950;24.372;2023-05-19T12:11:53;87127.69;;;14.74;88.80
11678;BME280;5895;41.950;24.372;2023-05-19T12:14:21;87121.03;;;14.45;90.92
11678;BME280;5895;41.950;24.372;2023-05-19T12:16:48;87136.72;;;14.28;94.39
11678;BME280;5895;41.950;24.372;2023-05-19T12:19:15;87145.53;;;14.05;92.17
11678;BME280;5895;41.950;24.372;2023-05-19T12:21:42;87147.50;;;13.98;94.11
11678;BME280;5895;41.950;24.372;2023-05-19T12:24:10;87132.09;;;13.80;91.03
11678;BME280;5895;41.950;24.372;2023-05-19T12:26:37;87132.84;;;13.63;88.51
11678;BME280;5895;41.950;24.372;2023-05-19T12:29:06;87136.91;;;13.54;89.03
11678;BME280;5895;41.950;24.372;2023-05-19T12:31:33;87137.59;;;13.49;90.40
11678;BME280;5895;41.950;24.372;2023-05-19T12:34:00;87133.00;;;13.40;88.28
11678;BME280;5895;41.950;24.372;2023-05-19T12:36:27;87137.91;;;13.36;88.29
11678;BME280;5895;41.950;24.372;2023-05-19T12:38:56;87138.50;;;13.27;90.28
11678;BME280;5895;41.950;24.372;2023-05-19T12:41:24;87135.31;;;12.96;90.99
11678;BME280;5895;41.950;24.372;2023-05-19T12:43:53;87132.16;;;12.94;91.49
11678;BME280;5895;41.950;24.372;2023-05-19T12:46:21;87132.91;;;13.06;92.50
11678;BME280;5895;41.950;24.372;2023-05-19T12:48:48;87126.97;;;13.22;92.01
11678;BME280;5895;41.950;24.372;2023-05-19T12:51:17;87124.22;;;13.46;91.61
11678;BME280;5895;41.950;24.372;2023-05-19T12:53:44;87131.13;;;13.69;91.55
11678;BME280;5895;41.950;24.372;2023-05-19T12:56:12;87133.53;;;13.70;89.81
11678;BME280;5895;41.950;24.372;2023-05-19T12:58:40;87132.41;;;13.66;89.84
11678;BME280;5895;41.950;24.372;2023-05-19T13:01:14;87121.34;;;13.76;90.19
11678;BME280;5895;41.950;24.372;2023-05-19T13:03:43;87122.31;;;13.87;90.71
11678;BME280;5895;41.950;24.372;2023-05-19T13:06:10;87123.88;;;13.88;90.64
11678;BME280;5895;41.950;24.372;2023-05-19T13:08:37;87127.34;;;13.93;91.02